首页
METAR-TAF:

METAR-TAF

机场 :

阿塔蒂尔克国际机场

伊斯坦布尔 阿塔土克, 土耳其

纬度: 40-58N, 经度: 028-49E, 海拔: 48米

当前天气观测

该预报发布于26分钟前的08:20 UTC
风速5节,风向南转南东,在东转东南西南之间变化
温度 26°C
湿度 70%
气压 1013 hPa
能见度10公里或以上
少量云层高于3500英尺

METAR: LTBA 140820Z 16005KT 110V230 9999 FEW035 26/20 Q1013 NOSIG

时间: 11:46 (08:46 UTC)

预报

该预报发布于4小时和6分钟前的04:40 UTC
预报有效从14日的 06点(UTC)到 15日的 12点(UTC)
风速9节,风向东北
能见度10公里或以上
散云层高于3500英尺
成为
从 14日的 06点(UTC)到 14日的 10点(UTC)
风速15节,风向东北,有时为25节阵风
能见度10公里或以上
1500米以下无云,无积雨云
成为
从 14日的 18点(UTC)到 14日的 22点(UTC)
风速12节,风向东北

TAF: LTBA 140440Z 1406/1512 04009KT 9999 SCT035 BECMG 1406/1410 05015G25KT CAVOK BECMG 1418/1422 04012KT

超过4000个机场的气象观测和天气预报(METAR&TAF报告)。

可查询的气象台以黄色和红色小点在地图上表示。

将鼠标移到小点上方,可查看气象台名称。

然后点击查看天气观测和预报。

如需切换地图:点击带黑十字的绿色按钮放大地图;点击带横线的绿色按钮缩小地图;或者点击绿色箭头查看邻近地区的地图。


METAR-TAF: